Time;durP1;ratioP1;P1;durP2;ratioP2;P2;SDS_P1;SDS_P2;PMS_P1;PMS_P2;Temp;Humidity;BMP_temperature;BMP_pressure;BME280_temperature;BME280_humidity;BME280_pressure;Samples;Min_cycle;Max_cycle;Signal;HPM_P1;HPM_P2
2022/03/16 00:00:35;;;;;;;;;;;;;;;9.86;37.52;98549.38;1626685;88;20272;-82
2022/03/16 00:03:03;;;;;;;;;;;;;;;9.86;37.77;98558.98;1652322;86;20241;-82
2022/03/16 00:05:29;;;;;;;;;;;;;;;9.81;38.01;98549.30;1620570;88;25017;-82
2022/03/16 00:07:55;;;;;;;;;;;;;;;9.75;38.25;98556.22;1617872;87;22063;-82
2022/03/16 00:10:21;;;;;;;;;;;;;;;9.69;38.56;98572.30;1647050;85;26008;-82
2022/03/16 00:12:47;;;;;;;;;;;;;;;9.59;38.95;98580.73;1626168;87;24524;-84
2022/03/16 00:15:13;;;;;;;;;;;;;;;9.42;39.50;98578.80;1625194;88;20816;-84
2022/03/16 00:17:39;;;;;;;;;;;;;;;9.27;40.05;98580.61;1625221;88;25196;-84
2022/03/16 00:20:06;;;;;;;;;;;;;;;9.06;40.62;98586.66;1625163;87;22003;-85
2022/03/16 00:22:32;;;;;;;;;;;;;;;8.94;41.09;98582.68;1654659;85;26056;-85
2022/03/16 00:24:58;;;;;;;;;;;;;;;8.78;41.72;98591.91;1657289;86;24452;-85
2022/03/16 00:27:24;;;;;;;;;;;;;;;8.59;42.21;98586.93;1656857;86;20381;-85
2022/03/16 00:29:50;;;;;;;;;;;;;;;8.39;42.70;98585.51;1654981;86;20245;-85
2022/03/16 00:32:21;;;;;;;;;;;;;;;8.25;43.08;98580.67;1649485;86;22090;-85
2022/03/16 00:34:47;;;;;;;;;;;;;;;8.09;43.61;98573.36;1657722;86;26093;-85
2022/03/16 00:37:13;;;;;;;;;;;;;;;7.97;44.04;98568.38;1657651;86;24526;-85
2022/03/16 00:39:39;;;;;;;;;;;;;;;7.83;44.46;98572.25;1657021;86;20379;-85
2022/03/16 00:42:05;;;;;;;;;;;;;;;7.76;44.79;98560.48;1646487;86;20249;-85
2022/03/16 00:44:34;;;;;;;;;;;;;;;7.75;45.12;98558.34;1656341;86;22006;-85
2022/03/16 00:46:59;;;;;;;;;;;;;;;7.76;45.45;98565.70;1655046;86;25954;-86
2022/03/16 00:49:25;;;;;;;;;;;;;;;7.80;45.75;98562.83;1657177;86;20470;-86
2022/03/16 00:51:52;;;;;;;;;;;;;;;7.75;46.13;98557.50;1646903;85;20236;-86
2022/03/16 00:54:18;;;;;;;;;;;;;;;7.66;46.41;98554.12;1625808;88;20259;-86
2022/03/16 00:56:44;;;;;;;;;;;;;;;7.56;46.76;98545.98;1645456;86;20319;-86
2022/03/16 00:59:10;;;;;;;;;;;;;;;7.48;47.12;98540.35;1651227;87;26083;-86
2022/03/16 01:01:36;;;;;;;;;;;;;;;7.37;47.47;98535.73;1651141;86;20262;-86
2022/03/16 01:04:03;;;;;;;;;;;;;;;7.35;47.83;98534.16;1651456;87;20502;-86
2022/03/16 01:06:29;;;;;;;;;;;;;;;7.28;48.17;98526.30;1651570;87;24947;-86
2022/03/16 01:08:55;;;;;;;;;;;;;;;7.18;48.44;98523.37;1647741;87;22060;-86
2022/03/16 01:11:21;;;;;;;;;;;;;;;7.10;48.74;98517.73;1651396;86;25967;-86
2022/03/16 01:13:47;;;;;;;;;;;;;;;7.02;48.99;98519.47;1651794;87;24426;-87
2022/03/16 01:16:13;;;;;;;;;;;;;;;6.96;49.28;98510.69;1650197;87;20329;-87
2022/03/16 01:18:39;;;;;;;;;;;;;;;6.88;49.57;98508.10;1651002;86;25038;-86
2022/03/16 01:21:05;;;;;;;;;;;;;;;6.80;49.90;98495.53;1651681;87;20337;-86
2022/03/16 01:23:31;;;;;;;;;;;;;;;6.70;50.23;98490.45;1646254;86;26027;-86
2022/03/16 01:25:57;;;;;;;;;;;;;;;6.62;50.56;98486.94;1665398;85;24549;-86
2022/03/16 01:28:24;;;;;;;;;;;;;;;6.56;50.88;98492.46;1645249;86;20351;-85
2022/03/16 01:30:50;;;;;;;;;;;;;;;6.54;51.18;98493.48;1651586;87;24962;-86
2022/03/16 01:33:17;;;;;;;;;;;;;;;6.55;51.49;98487.33;1648810;87;21989;-86
2022/03/16 01:35:43;;;;;;;;;;;;;;;6.57;51.87;98493.30;1651383;86;26093;-86
2022/03/16 01:38:09;;;;;;;;;;;;;;;6.60;52.23;98485.36;1652355;87;24734;-86
2022/03/16 01:40:35;;;;;;;;;;;;;;;6.68;52.63;98482.72;1651759;87;20322;-86
2022/03/16 01:43:01;;;;;;;;;;;;;;;6.76;53.02;98478.42;1651254;87;25097;-86
2022/03/16 01:45:27;;;;;;;;;;;;;;;6.79;53.39;98474.34;1636790;86;21935;-86
2022/03/16 01:47:53;;;;;;;;;;;;;;;6.72;53.75;98468.62;1647423;86;21074;-86
2022/03/16 01:50:19;;;;;;;;;;;;;;;6.57;54.13;98469.91;1654869;85;20376;-86
2022/03/16 01:52:45;;;;;;;;;;;;;;;6.43;54.51;98469.34;1637266;85;20400;-85
2022/03/16 01:55:11;;;;;;;;;;;;;;;6.34;54.87;98465.91;1644459;85;20223;-85
2022/03/16 01:57:39;;;;;;;;;;;;;;;6.24;55.25;98461.66;1641953;85;22055;-85
2022/03/16 02:00:06;;;;;;;;;;;;;;;6.19;55.67;98461.06;1648957;85;26162;-86
2022/03/16 02:02:33;;;;;;;;;;;;;;;6.18;56.08;98458.07;1633123;85;24584;-86
2022/03/16 02:04:59;;;;;;;;;;;;;;;6.12;56.54;98458.38;1649804;85;20483;-86
2022/03/16 02:07:25;;;;;;;;;;;;;;;6.04;57.00;98459.25;1632996;85;24960;-86
2022/03/16 02:09:53;;;;;;;;;;;;;;;5.97;57.50;98457.88;1650650;85;21958;-85
2022/03/16 02:12:19;;;;;;;;;;;;;;;5.92;58.00;98458.57;1636426;85;26671;-85
2022/03/16 02:14:45;;;;;;;;;;;;;;;5.92;58.45;98455.97;1617841;88;24787;-86
2022/03/16 02:17:11;;;;;;;;;;;;;;;5.94;58.91;98458.05;1615694;88;20279;-86
2022/03/16 02:19:37;;;;;;;;;;;;;;;5.93;59.31;98462.86;1609846;88;24961;-86
2022/03/16 02:22:04;;;;;;;;;;;;;;;5.96;59.69;98460.55;1616871;88;21977;-85
2022/03/16 02:24:30;;;;;;;;;;;;;;;5.94;60.13;98455.91;1614702;88;25972;-86
2022/03/16 02:27:02;;;;;;;;;;;;;;;5.93;60.50;98453.77;1608496;88;24428;-86
2022/03/16 02:29:29;;;;;;;;;;;;;;;5.92;60.89;98450.78;1612989;88;20491;-86
2022/03/16 02:31:57;;;;;;;;;;;;;;;5.88;61.30;98447.52;1610299;88;25715;-86
2022/03/16 02:34:23;;;;;;;;;;;;;;;5.86;61.67;98447.16;1609684;88;22054;-86
2022/03/16 02:36:50;;;;;;;;;;;;;;;5.77;62.12;98445.87;1614119;88;26778;-86
2022/03/16 02:39:19;;;;;;;;;;;;;;;5.69;62.54;98437.62;1613967;88;25213;-86
2022/03/16 02:41:48;;;;;;;;;;;;;;;5.65;62.96;98449.53;1613647;88;20237;-86
2022/03/16 02:44:14;;;;;;;;;;;;;;;5.60;63.34;98446.33;1612224;87;25003;-86
2022/03/16 02:46:40;;;;;;;;;;;;;;;5.56;63.79;98444.36;1583836;89;21992;-86
2022/03/16 02:49:06;;;;;;;;;;;;;;;5.48;64.23;98439.98;1619028;88;26040;-86
2022/03/16 02:51:32;;;;;;;;;;;;;;;5.41;64.66;98443.34;1618151;88;24496;-86
2022/03/16 02:53:58;;;;;;;;;;;;;;;5.37;65.01;98437.08;1617633;88;20343;-86
2022/03/16 02:56:27;;;;;;;;;;;;;;;5.39;65.41;98443.05;1620825;88;20224;-85
2022/03/16 02:58:52;;;;;;;;;;;;;;;5.36;65.83;98437.98;1614843;88;22883;-86
2022/03/16 03:01:18;;;;;;;;;;;;;;;5.35;66.26;98442.33;1616253;88;26172;-85
2022/03/16 03:03:44;;;;;;;;;;;;;;;5.33;66.67;98444.18;1622498;88;24409;-85
2022/03/16 03:06:10;;;;;;;;;;;;;;;5.35;67.04;98442.78;1615633;88;20471;-84
2022/03/16 03:08:36;;;;;;;;;;;;;;;5.34;67.38;98436.78;1619192;88;25139;-84
2022/03/16 03:11:02;;;;;;;;;;;;;;;5.38;67.71;98443.95;1620441;88;21964;-84
2022/03/16 03:13:29;;;;;;;;;;;;;;;5.39;68.08;98430.91;1622365;88;26100;-84
2022/03/16 03:15:55;;;;;;;;;;;;;;;5.41;68.39;98426.92;1624063;88;24551;-84
2022/03/16 03:18:21;;;;;;;;;;;;;;;5.42;68.75;98429.91;1625456;88;20917;-84
2022/03/16 03:20:47;;;;;;;;;;;;;;;5.38;69.05;98425.33;1618712;88;25042;-84
2022/03/16 03:23:13;;;;;;;;;;;;;;;5.35;69.40;98428.06;1615293;88;21971;-85
2022/03/16 03:25:39;;;;;;;;;;;;;;;5.28;69.81;98431.89;1616747;88;26064;-84
2022/03/16 03:28:05;;;;;;;;;;;;;;;5.20;70.24;98433.16;1619420;88;24537;-84
2022/03/16 03:30:31;;;;;;;;;;;;;;;5.13;70.67;98430.02;1619026;88;20355;-84
2022/03/16 03:32:57;;;;;;;;;;;;;;;5.06;71.14;98431.23;1656111;86;25074;-84
2022/03/16 03:35:23;;;;;;;;;;;;;;;5.01;71.59;98430.17;1655395;86;20385;-85
2022/03/16 03:37:51;;;;;;;;;;;;;;;5.02;71.99;98433.12;1654349;86;26150;-85
2022/03/16 03:40:18;;;;;;;;;;;;;;;5.03;72.39;98432.66;1656855;85;25563;-86
2022/03/16 03:42:44;;;;;;;;;;;;;;;5.00;72.82;98428.48;1657625;85;20400;-86
2022/03/16 03:45:12;;;;;;;;;;;;;;;4.94;73.19;98432.66;1650301;86;25675;-86
2022/03/16 03:47:38;;;;;;;;;;;;;;;4.94;73.57;98431.36;1649198;86;21815;-86
2022/03/16 03:50:04;;;;;;;;;;;;;;;4.96;73.93;98428.70;1656058;85;25887;-86
2022/03/16 03:52:30;;;;;;;;;;;;;;;4.92;74.33;98427.98;1633144;85;24494;-86
2022/03/16 03:54:57;;;;;;;;;;;;;;;4.90;74.66;98430.28;1622707;88;20452;-85
2022/03/16 03:57:23;;;;;;;;;;;;;;;4.87;74.98;98428.66;1626039;88;25116;-85
2022/03/16 03:59:49;;;;;;;;;;;;;;;4.87;75.30;98426.52;1624733;87;20292;-85
2022/03/16 04:02:15;;;;;;;;;;;;;;;4.87;75.63;98431.25;1627435;88;25982;-85
2022/03/16 04:04:41;;;;;;;;;;;;;;;4.85;75.98;98435.69;1624158;88;24654;-85
2022/03/16 04:07:07;;;;;;;;;;;;;;;4.80;76.30;98432.93;1622043;88;20491;-85
2022/03/16 04:09:33;;;;;;;;;;;;;;;4.73;76.72;98432.37;1625660;88;24972;-85
2022/03/16 04:11:59;;;;;;;;;;;;;;;4.69;77.06;98441.17;1623966;87;21790;-85
2022/03/16 04:14:25;;;;;;;;;;;;;;;4.66;77.40;98432.25;1624697;88;26037;-85
2022/03/16 04:16:51;;;;;;;;;;;;;;;4.66;77.75;98443.08;1625077;88;24521;-85
2022/03/16 04:19:18;;;;;;;;;;;;;;;4.69;78.08;98441.66;1624774;88;20477;-85
2022/03/16 04:21:44;;;;;;;;;;;;;;;4.71;78.40;98443.70;1625288;88;24985;-85
2022/03/16 04:24:10;;;;;;;;;;;;;;;4.72;78.73;98439.75;1624422;88;21920;-85
2022/03/16 04:26:36;;;;;;;;;;;;;;;4.71;79.05;98441.11;1624250;88;26086;-85
2022/03/16 04:29:02;;;;;;;;;;;;;;;4.73;79.35;98447.08;1624425;87;24484;-85
2022/03/16 04:31:28;;;;;;;;;;;;;;;4.76;79.67;98449.06;1624450;87;20225;-85
2022/03/16 04:33:55;;;;;;;;;;;;;;;4.74;79.95;98447.47;1623055;88;20822;-85
2022/03/16 04:36:21;;;;;;;;;;;;;;;4.72;80.23;98447.53;1623505;88;21970;-85
2022/03/16 04:38:47;;;;;;;;;;;;;;;4.71;80.50;98450.19;1627518;88;26039;-85
2022/03/16 04:41:13;;;;;;;;;;;;;;;4.71;80.79;98456.21;1625712;86;20267;-85
2022/03/16 04:43:39;;;;;;;;;;;;;;;4.70;81.08;98460.16;1624658;88;20257;-85
2022/03/16 04:46:05;;;;;;;;;;;;;;;4.72;81.34;98454.46;1626590;87;20267;-85
2022/03/16 04:48:31;;;;;;;;;;;;;;;4.75;81.61;98463.38;1623230;88;21924;-85
2022/03/16 04:50:57;;;;;;;;;;;;;;;4.76;81.87;98465.07;1627980;88;26028;-86
2022/03/16 04:53:27;;;;;;;;;;;;;;;4.78;82.12;98465.40;1651849;86;25241;-85
2022/03/16 04:55:53;;;;;;;;;;;;;;;4.78;82.37;98466.70;1631615;86;20237;-86
2022/03/16 04:58:22;;;;;;;;;;;;;;;4.76;82.61;98465.07;1651793;86;25628;-85
2022/03/16 05:00:48;;;;;;;;;;;;;;;4.79;82.89;98470.13;1654516;86;22095;-85
2022/03/16 05:03:19;;;;;;;;;;;;;;;4.83;83.13;98480.73;1651312;86;21055;-85
2022/03/16 05:05:47;;;;;;;;;;;;;;;4.86;83.40;98478.83;1655638;85;24339;-85
2022/03/16 05:08:13;;;;;;;;;;;;;;;4.90;83.67;98489.47;1651164;86;20562;-86
2022/03/16 05:10:39;;;;;;;;;;;;;;;4.94;83.91;98484.97;1652360;86;24967;-85
2022/03/16 05:13:05;;;;;;;;;;;;;;;4.97;84.12;98490.00;1655570;86;21985;-85
2022/03/16 05:15:31;;;;;;;;;;;;;;;4.97;84.35;98489.55;1651985;86;26234;-86
2022/03/16 05:18:03;;;;;;;;;;;;;;;5.00;84.55;98492.47;1650957;85;20954;-85
2022/03/16 05:20:35;;;;;;;;;;;;;;;4.98;84.77;98491.23;1655082;86;20359;-86
2022/03/16 05:23:01;;;;;;;;;;;;;;;4.93;84.95;98491.06;1656550;86;24960;-85
2022/03/16 05:25:32;;;;;;;;;;;;;;;4.94;85.17;98488.86;1655092;86;21883;-85
2022/03/16 05:27:58;;;;;;;;;;;;;;;4.97;85.40;98491.30;1651993;86;26082;-85
2022/03/16 05:30:26;;;;;;;;;;;;;;;5.01;85.68;98492.86;1651904;86;24440;-85
2022/03/16 05:32:53;;;;;;;;;;;;;;;5.06;85.93;98499.97;1620526;86;20247;-85
2022/03/16 05:35:25;;;;;;;;;;;;;;;5.10;86.18;98495.47;1631967;87;24631;-85
2022/03/16 05:37:51;;;;;;;;;;;;;;;5.15;86.42;98502.58;1648529;85;22156;-85
2022/03/16 05:40:17;;;;;;;;;;;;;;;5.14;86.65;98500.44;1656137;85;26970;-85
2022/03/16 05:42:43;;;;;;;;;;;;;;;5.13;86.82;98515.61;1650837;85;24615;-85
2022/03/16 05:45:10;;;;;;;;;;;;;;;5.12;87.00;98511.36;1651905;85;20220;-85
2022/03/16 05:47:36;;;;;;;;;;;;;;;5.20;87.28;98513.13;1650852;86;24894;-85
2022/03/16 05:50:03;;;;;;;;;;;;;;;5.28;87.57;98516.22;1656580;85;22048;-85
2022/03/16 05:52:31;;;;;;;;;;;;;;;5.26;87.76;98531.00;1654962;85;26029;-84
2022/03/16 05:55:04;;;;;;;;;;;;;;;5.16;87.85;98534.94;1625928;88;25385;-85
2022/03/16 05:57:30;;;;;;;;;;;;;;;5.02;87.95;98547.23;1617623;87;20449;-85
2022/03/16 05:59:59;;;;;;;;;;;;;;;4.94;88.07;98554.98;1657993;85;25121;-85
2022/03/16 06:02:31;;;;;;;;;;;;;;;4.89;88.27;98559.55;1646037;86;22595;-85
2022/03/16 06:04:57;;;;;;;;;;;;;;;4.85;88.49;98559.30;1651328;86;25942;-85
2022/03/16 06:07:23;;;;;;;;;;;;;;;4.86;88.80;98563.55;1651628;87;24479;-85
2022/03/16 06:09:49;;;;;;;;;;;;;;;4.87;89.09;98564.78;1651825;87;20356;-85
2022/03/16 06:12:15;;;;;;;;;;;;;;;4.89;89.42;98570.76;1651427;87;25016;-86
2022/03/16 06:14:41;;;;;;;;;;;;;;;4.93;89.72;98571.45;1651177;87;21941;-85
2022/03/16 06:17:07;;;;;;;;;;;;;;;4.98;90.05;98579.41;1652017;85;21110;-85
2022/03/16 06:19:33;;;;;;;;;;;;;;;5.04;90.37;98581.73;1651216;87;24467;-84
2022/03/16 06:21:59;;;;;;;;;;;;;;;5.12;90.68;98580.55;1651746;87;20733;-85
2022/03/16 06:24:25;;;;;;;;;;;;;;;5.20;91.01;98577.98;1651649;87;20274;-85
2022/03/16 06:26:51;;;;;;;;;;;;;;;5.28;91.30;98575.05;1651099;87;21938;-85
2022/03/16 06:29:17;;;;;;;;;;;;;;;5.42;91.67;98573.48;1651529;87;26081;-85
2022/03/16 06:31:43;;;;;;;;;;;;;;;5.51;91.94;98579.98;1651277;87;24528;-85
2022/03/16 06:34:09;;;;;;;;;;;;;;;5.65;92.24;98583.23;1652428;86;20231;-85
2022/03/16 06:36:35;;;;;;;;;;;;;;;5.82;92.59;98583.27;1651430;87;20231;-85
2022/03/16 06:39:03;;;;;;;;;;;;;;;5.83;92.71;98586.27;1652149;87;20782;-85
2022/03/16 06:41:29;;;;;;;;;;;;;;;5.88;92.85;98590.80;1651517;87;26075;-85
2022/03/16 06:43:57;;;;;;;;;;;;;;;5.86;92.92;98593.89;1651451;87;24504;-84
2022/03/16 06:46:24;;;;;;;;;;;;;;;5.86;93.01;98605.13;1651072;85;20618;-84
2022/03/16 06:48:50;;;;;;;;;;;;;;;5.86;93.09;98606.42;1648828;85;25344;-84
2022/03/16 06:51:16;;;;;;;;;;;;;;;5.80;93.12;98615.80;1647542;85;20319;-84
2022/03/16 06:53:42;;;;;;;;;;;;;;;5.76;93.15;98609.53;1629335;87;26007;-85
2022/03/16 06:56:09;;;;;;;;;;;;;;;5.63;93.13;98617.50;1633331;87;24652;-84
2022/03/16 06:58:36;;;;;;;;;;;;;;;5.45;93.06;98625.72;1650104;86;20242;-84
2022/03/16 07:01:02;;;;;;;;;;;;;;;5.34;93.09;98636.59;1624735;88;25146;-84
2022/03/16 07:03:28;;;;;;;;;;;;;;;5.26;93.22;98637.83;1645231;87;22132;-84
2022/03/16 07:05:54;;;;;;;;;;;;;;;5.17;93.35;98644.28;1651480;87;26045;-84
2022/03/16 07:08:20;;;;;;;;;;;;;;;5.10;93.57;98648.51;1650771;87;24459;-84
2022/03/16 07:10:46;;;;;;;;;;;;;;;5.01;93.87;98653.20;1650910;87;20551;-84
2022/03/16 07:13:13;;;;;;;;;;;;;;;4.90;94.15;98658.47;1651326;87;25023;-83
2022/03/16 07:15:45;;;;;;;;;;;;;;;4.85;94.50;98663.02;1651485;87;21615;-84
2022/03/16 07:18:12;;;;;;;;;;;;;;;4.79;94.87;98667.16;1651340;85;26015;-83
2022/03/16 07:20:38;;;;;;;;;;;;;;;4.78;95.26;98670.66;1649999;87;24754;-83
2022/03/16 07:23:09;;;;;;;;;;;;;;;4.76;95.69;98677.64;1652315;87;20262;-83
2022/03/16 07:25:36;;;;;;;;;;;;;;;4.74;96.08;98676.89;1637674;87;25048;-84
2022/03/16 07:28:02;;;;;;;;;;;;;;;4.74;96.48;98678.19;1650963;87;22070;-83
2022/03/16 07:30:28;;;;;;;;;;;;;;;4.79;96.91;98684.02;1651919;87;26051;-83
2022/03/16 07:33:01;;;;;;;;;;;;;;;4.82;97.30;98687.76;1651514;87;25472;-83
2022/03/16 07:35:28;;;;;;;;;;;;;;;4.86;97.67;98695.78;1651500;87;20252;-83
2022/03/16 07:37:55;;;;;;;;;;;;;;;4.93;98.07;98692.03;1651083;87;24946;-83
2022/03/16 07:40:22;;;;;;;;;;;;;;;4.98;98.41;98695.27;1650356;87;22765;-83
2022/03/16 07:42:49;;;;;;;;;;;;;;;5.02;98.70;98702.00;1650271;87;26002;-83
2022/03/16 07:45:18;;;;;;;;;;;;;;;5.01;98.98;98701.19;1652301;87;24577;-83
2022/03/16 07:47:46;;;;;;;;;;;;;;;5.05;99.26;98703.19;1651928;87;20202;-83
2022/03/16 07:50:13;;;;;;;;;;;;;;;5.08;99.53;98705.63;1651011;87;25028;-83
2022/03/16 07:52:39;;;;;;;;;;;;;;;5.08;99.79;98704.33;1648419;87;22087;-83
2022/03/16 07:55:13;;;;;;;;;;;;;;;5.09;100.00;98710.36;1632706;87;21598;-83
2022/03/16 07:57:43;;;;;;;;;;;;;;;5.13;100.00;98713.23;1633490;87;25407;-83
2022/03/16 08:00:13;;;;;;;;;;;;;;;5.18;100.00;98720.36;1634212;87;20186;-83
2022/03/16 08:02:40;;;;;;;;;;;;;;;5.26;100.00;98721.70;1634276;87;25256;-83
2022/03/16 08:05:07;;;;;;;;;;;;;;;5.42;100.00;98720.11;1634862;87;22017;-83
2022/03/16 08:07:33;;;;;;;;;;;;;;;5.53;100.00;98719.63;1630760;87;26150;-84
2022/03/16 08:09:59;;;;;;;;;;;;;;;5.64;100.00;98723.04;1633590;87;24512;-84
2022/03/16 08:12:25;;;;;;;;;;;;;;;5.77;100.00;98713.79;1653709;86;20342;-83
2022/03/16 08:14:52;;;;;;;;;;;;;;;5.98;100.00;98711.53;1611745;88;24959;-83
2022/03/16 08:17:18;;;;;;;;;;;;;;;6.17;100.00;98707.59;1630383;87;21941;-83
2022/03/16 08:19:44;;;;;;;;;;;;;;;6.28;100.00;98711.81;1654498;86;26046;-83
2022/03/16 08:22:10;;;;;;;;;;;;;;;6.34;100.00;98712.82;1611745;87;24517;-83
2022/03/16 08:24:36;;;;;;;;;;;;;;;6.40;100.00;98720.33;1611929;89;20913;-83
2022/03/16 08:27:03;;;;;;;;;;;;;;;6.45;100.00;98711.84;1612360;88;25203;-83
2022/03/16 08:29:28;;;;;;;;;;;;;;;6.50;100.00;98714.22;1638431;86;21982;-83
2022/03/16 08:31:57;;;;;;;;;;;;;;;6.51;100.00;98719.80;1638633;86;21064;-83
2022/03/16 08:34:22;;;;;;;;;;;;;;;6.60;100.00;98709.78;1635396;87;25080;-83
2022/03/16 08:36:48;;;;;;;;;;;;;;;6.75;100.00;98719.06;1635150;87;20424;-84
2022/03/16 08:39:15;;;;;;;;;;;;;;;6.78;100.00;98724.94;1637483;87;25019;-83
2022/03/16 08:41:43;;;;;;;;;;;;;;;6.81;100.00;98731.31;1636643;87;22028;-83
2022/03/16 08:44:09;;;;;;;;;;;;;;;6.84;100.00;98728.55;1638198;87;26096;-83
2022/03/16 08:46:35;;;;;;;;;;;;;;;6.86;100.00;98731.92;1638921;86;24398;-83
2022/03/16 08:49:01;;;;;;;;;;;;;;;6.87;100.00;98731.01;1651903;86;20855;-83
2022/03/16 08:51:27;;;;;;;;;;;;;;;7.06;100.00;98736.95;1629014;86;25114;-83
2022/03/16 08:53:53;;;;;;;;;;;;;;;7.16;100.00;98730.81;1645711;85;21989;-83
2022/03/16 08:56:19;;;;;;;;;;;;;;;7.30;100.00;98734.02;1650427;85;21238;-83
2022/03/16 08:58:45;;;;;;;;;;;;;;;7.37;100.00;98741.41;1654579;86;24516;-83
2022/03/16 09:01:11;;;;;;;;;;;;;;;7.40;100.00;98731.31;1655673;86;20784;-83
2022/03/16 09:03:37;;;;;;;;;;;;;;;7.41;100.00;98733.00;1654259;85;24957;-83
2022/03/16 09:06:03;;;;;;;;;;;;;;;7.40;100.00;98739.97;1653890;85;22183;-83
2022/03/16 09:08:31;;;;;;;;;;;;;;;7.42;100.00;98739.41;1651567;85;25947;-83
2022/03/16 09:10:57;;;;;;;;;;;;;;;7.43;100.00;98742.40;1648706;86;24455;-83
2022/03/16 09:13:23;;;;;;;;;;;;;;;7.37;100.00;98745.77;1651906;86;20298;-83
2022/03/16 09:15:51;;;;;;;;;;;;;;;7.32;100.00;98749.08;1650832;86;25015;-83
2022/03/16 09:18:18;;;;;;;;;;;;;;;7.33;100.00;98754.67;1655008;85;22051;-83
2022/03/16 09:20:47;;;;;;;;;;;;;;;7.30;100.00;98753.55;1658088;86;25030;-85
2022/03/16 09:23:15;;;;;;;;;;;;;;;7.30;100.00;98756.98;1650670;86;23927;-85
2022/03/16 09:25:41;;;;;;;;;;;;;;;7.29;100.00;98760.97;1634165;86;20248;-85
2022/03/16 09:28:08;;;;;;;;;;;;;;;7.23;100.00;98768.63;1635566;87;24987;-85
2022/03/16 09:30:35;;;;;;;;;;;;;;;7.22;100.00;98771.30;1628643;86;22046;-85
2022/03/16 09:33:00;;;;;;;;;;;;;;;7.23;100.00;98775.14;1655480;86;26044;-85
2022/03/16 09:35:28;;;;;;;;;;;;;;;7.20;100.00;98770.06;1652755;85;24385;-85
2022/03/16 09:37:54;;;;;;;;;;;;;;;7.20;100.00;98777.06;1656266;85;20288;-84
2022/03/16 09:40:20;;;;;;;;;;;;;;;7.12;100.00;98772.23;1653261;85;25024;-85
2022/03/16 09:42:48;;;;;;;;;;;;;;;7.08;100.00;98772.02;1625545;86;22088;-85
2022/03/16 09:45:15;;;;;;;;;;;;;;;7.07;100.00;98772.92;1616638;86;26199;-85
2022/03/16 09:47:42;;;;;;;;;;;;;;;7.10;100.00;98776.20;1638961;87;25117;-85
2022/03/16 09:50:09;;;;;;;;;;;;;;;7.08;100.00;98779.82;1642122;87;20245;-85
2022/03/16 09:52:35;;;;;;;;;;;;;;;7.08;100.00;98783.72;1643580;87;25049;-85
2022/03/16 09:55:03;;;;;;;;;;;;;;;7.11;100.00;98785.70;1648567;86;22044;-85
2022/03/16 09:57:29;;;;;;;;;;;;;;;7.15;100.00;98787.22;1642964;87;26014;-85
2022/03/16 09:59:55;;;;;;;;;;;;;;;7.19;100.00;98788.39;1646188;86;24515;-85
2022/03/16 10:02:21;;;;;;;;;;;;;;;7.25;100.00;98790.23;1648095;85;20265;-85
2022/03/16 10:04:48;;;;;;;;;;;;;;;7.29;100.00;98790.45;1624676;88;25122;-85
2022/03/16 10:07:14;;;;;;;;;;;;;;;7.32;100.00;98793.33;1642896;86;21933;-85
2022/03/16 10:15:12;;;;;;;;;;;;;;;7.35;100.00;98790.59;1609114;88;20233;-85
2022/03/16 10:17:45;;;;;;;;;;;;;;;7.43;100.00;98789.73;1646447;85;24500;-85
2022/03/16 10:20:31;;;;;;;;;;;;;;;7.53;100.00;98794.38;1651028;86;21537;-85
2022/03/16 10:22:59;;;;;;;;;;;;;;;7.63;100.00;98790.02;1624574;87;26301;-85
2022/03/16 10:25:28;;;;;;;;;;;;;;;7.78;100.00;98791.35;1623623;87;24627;-85
2022/03/16 10:28:00;;;;;;;;;;;;;;;7.88;100.00;98788.63;1624869;86;20504;-85
2022/03/16 10:30:27;;;;;;;;;;;;;;;8.01;100.00;98790.13;1611256;88;25093;-86
2022/03/16 10:32:53;;;;;;;;;;;;;;;8.07;100.00;98794.17;1625729;88;22645;-86
2022/03/16 10:35:20;;;;;;;;;;;;;;;8.04;100.00;98793.86;1624132;88;26159;-86
2022/03/16 10:37:49;;;;;;;;;;;;;;;8.07;100.00;98796.78;1626461;86;24085;-86
2022/03/16 10:40:19;;;;;;;;;;;;;;;8.11;100.00;98800.89;1624134;88;20554;-86
2022/03/16 10:48:19;;;;;;;;;;;;;;;8.35;100.00;98801.72;1623819;88;26179;-86
2022/03/16 10:50:58;;;;;;;;;;;;;;;8.40;100.00;98802.77;1623229;88;24967;-86
2022/03/16 10:53:29;;;;;;;;;;;;;;;8.48;100.00;98800.59;1624508;88;20650;-85
2022/03/16 10:55:52;;;;;;;;;;;;;;;8.65;100.00;98797.05;1628740;88;25077;-86
2022/03/16 10:58:25;;;;;;;;;;;;;;;8.77;100.00;98801.12;1652565;85;23380;-86
2022/03/16 11:00:52;;;;;;;;;;;;;;;8.91;100.00;98795.56;1656170;85;26056;-86
2022/03/16 11:03:22;;;;;;;;;;;;;;;9.01;100.00;98802.77;1657039;86;24434;-86
2022/03/16 11:05:48;;;;;;;;;;;;;;;9.11;100.00;98799.19;1658989;85;20234;-85
2022/03/16 11:08:15;;;;;;;;;;;;;;;9.18;100.00;98803.10;1655470;85;25121;-86
2022/03/16 11:10:42;;;;;;;;;;;;;;;9.12;100.00;98812.59;1652635;86;22237;-86
2022/03/16 11:13:28;;;;;;;;;;;;;;;9.06;100.00;98807.72;1651926;85;27021;-85
2022/03/16 11:15:55;;;;;;;;;;;;;;;9.17;100.00;98804.02;1655220;85;24638;-86
2022/03/16 11:18:23;;;;;;;;;;;;;;;9.37;100.00;98796.34;1650716;85;20224;-86
2022/03/16 11:20:51;;;;;;;;;;;;;;;9.51;100.00;98802.42;1650899;86;25043;-86
2022/03/16 11:26:23;;;;;;;;;;;;;;;9.63;100.00;98814.77;1653194;86;26677;-85
2022/03/16 11:28:57;;;;;;;;;;;;;;;9.53;100.00;98814.94;1657554;85;23975;-86
2022/03/16 11:31:25;;;;;;;;;;;;;;;9.56;100.00;98820.44;1651947;85;20747;-86
2022/03/16 11:33:52;;;;;;;;;;;;;;;9.61;100.00;98823.61;1657066;85;25045;-86
2022/03/16 11:36:28;;;;;;;;;;;;;;;9.67;100.00;98829.78;1656063;86;22064;-86
2022/03/16 11:38:54;;;;;;;;;;;;;;;9.56;100.00;98825.20;1650299;86;26039;-86
2022/03/16 11:41:27;;;;;;;;;;;;;;;9.41;100.00;98828.72;1659260;85;24499;-86
2022/03/16 11:44:03;;;;;;;;;;;;;;;9.37;100.00;98823.31;1648559;86;20286;-86
2022/03/16 11:46:31;;;;;;;;;;;;;;;9.39;100.00;98831.88;1653955;86;24947;-86
2022/03/16 11:49:02;;;;;;;;;;;;;;;9.42;100.00;98830.88;1651346;86;22170;-86
2022/03/16 11:51:29;;;;;;;;;;;;;;;9.39;100.00;98831.88;1654599;85;25579;-86
2022/03/16 11:54:01;;;;;;;;;;;;;;;9.43;100.00;98841.24;1654557;86;24734;-86
2022/03/16 11:56:41;;;;;;;;;;;;;;;9.44;100.00;98840.28;1660031;86;20258;-86
2022/03/16 11:59:10;;;;;;;;;;;;;;;9.48;100.00;98839.20;1616997;88;24974;-86
2022/03/16 12:01:42;;;;;;;;;;;;;;;9.54;100.00;98844.06;1630300;87;22731;-86
2022/03/16 12:04:12;;;;;;;;;;;;;;;9.57;100.00;98839.95;1670143;85;26081;-86
2022/03/16 12:06:50;;;;;;;;;;;;;;;9.63;100.00;98843.51;1672377;85;25101;-86
2022/03/16 12:09:20;;;;;;;;;;;;;;;9.64;100.00;98845.20;1620584;87;20217;-86
2022/03/16 12:14:58;;;;;;;;;;;;;;;9.68;100.00;98847.15;1657290;86;22022;-86
2022/03/16 12:17:24;;;;;;;;;;;;;;;9.72;100.00;98849.10;1659576;85;26634;-86
2022/03/16 12:20:09;;;;;;;;;;;;;;;9.80;100.00;98856.03;1658403;86;20918;-86
2022/03/16 12:22:46;;;;;;;;;;;;;;;9.88;100.00;98857.70;1669289;85;20317;-87
2022/03/16 12:25:27;;;;;;;;;;;;;;;10.03;100.00;98864.65;1663712;85;25027;-87
2022/03/16 12:30:40;;;;;;;;;;;;;;;10.08;100.00;98867.36;1671283;85;26051;-86
2022/03/16 12:33:08;;;;;;;;;;;;;;;9.95;100.00;98862.95;1673999;85;24408;-87
2022/03/16 12:35:34;;;;;;;;;;;;;;;9.92;99.84;98863.99;1644235;85;20418;-86
2022/03/16 12:38:01;;;;;;;;;;;;;;;9.90;98.56;98864.53;1645173;87;20254;-86
2022/03/16 12:40:29;;;;;;;;;;;;;;;9.96;97.85;98861.55;1662619;85;22065;-86
2022/03/16 12:43:01;;;;;;;;;;;;;;;10.08;97.34;98858.67;1662025;85;26074;-86
2022/03/16 12:45:28;;;;;;;;;;;;;;;10.22;97.00;98855.22;1658489;86;24525;-87
2022/03/16 12:47:59;;;;;;;;;;;;;;;10.33;96.76;98861.48;1660850;85;20230;-87
2022/03/16 12:50:27;;;;;;;;;;;;;;;10.40;96.36;98867.17;1659242;85;25198;-86
2022/03/16 12:52:53;;;;;;;;;;;;;;;10.41;95.99;98868.86;1660482;86;22068;-87
2022/03/16 12:55:20;;;;;;;;;;;;;;;10.39;95.14;98872.03;1657400;85;26157;-86
2022/03/16 12:57:54;;;;;;;;;;;;;;;10.35;94.35;98862.23;1658158;85;23934;-86
2022/03/16 13:00:20;;;;;;;;;;;;;;;10.36;93.58;98868.31;1658594;86;20247;-87
2022/03/16 13:02:47;;;;;;;;;;;;;;;10.43;92.98;98866.97;1615541;87;24498;-86
2022/03/16 13:05:18;;;;;;;;;;;;;;;10.49;92.24;98870.52;1623170;88;22124;-87
2022/03/16 13:07:41;;;;;;;;;;;;;;;10.60;91.85;98869.84;1657711;86;26223;-87
2022/03/16 13:10:14;;;;;;;;;;;;;;;10.65;91.36;98869.92;1658658;86;24460;-86
2022/03/16 13:12:56;;;;;;;;;;;;;;;10.63;90.63;98878.83;1657905;86;20690;-86